createdAt,value
2017-09-25T00:02:09.903Z,96.80
2017-09-25T00:04:40.825Z,96.80
2017-09-25T00:07:12.726Z,96.60
2017-09-25T00:09:44.408Z,96.50
2017-09-25T00:12:15.340Z,96.50
2017-09-25T00:14:46.670Z,96.20
2017-09-25T00:17:17.694Z,95.90
2017-09-25T00:19:48.674Z,95.80
2017-09-25T00:22:19.590Z,95.70
2017-09-25T00:24:51.279Z,95.50
2017-09-25T00:27:22.236Z,95.50
2017-09-25T00:29:53.166Z,95.40
2017-09-25T00:32:24.179Z,95.40
2017-09-25T00:34:55.092Z,95.30
2017-09-25T00:37:27.200Z,95.10
2017-09-25T00:39:58.094Z,95.10
2017-09-25T00:42:30.431Z,94.80
2017-09-25T00:45:01.341Z,94.90
2017-09-25T00:47:32.275Z,94.90
2017-09-25T00:50:04.130Z,94.60
2017-09-25T00:52:45.655Z,94.00
2017-09-25T00:55:27.220Z,93.70
2017-09-25T00:57:58.209Z,93.80
2017-09-25T01:00:40.459Z,93.80
2017-09-25T01:03:22.627Z,93.80
2017-09-25T01:06:04.830Z,93.60
2017-09-25T01:08:36.503Z,93.40
2017-09-25T01:11:07.870Z,93.30
2017-09-25T01:13:38.780Z,93.10
2017-09-25T01:16:11.162Z,92.80
2017-09-25T01:18:42.147Z,93.10
2017-09-25T01:21:13.059Z,92.70
2017-09-25T01:23:44.517Z,92.40
2017-09-25T01:26:15.554Z,92.10
2017-09-25T01:28:46.906Z,91.80
2017-09-25T01:31:18.921Z,92.00
2017-09-25T01:33:50.623Z,92.20
2017-09-25T01:36:21.527Z,92.20
2017-09-25T01:38:53.212Z,92.30
2017-09-25T01:41:24.788Z,92.30
2017-09-25T01:43:56.516Z,92.80
2017-09-25T01:46:27.509Z,92.80
2017-09-25T01:48:59.168Z,92.60
2017-09-25T01:51:30.867Z,92.50
2017-09-25T01:54:02.972Z,92.40
2017-09-25T01:56:33.884Z,92.30
2017-09-25T01:59:05.299Z,92.10
2017-09-25T02:01:36.970Z,91.70
2017-09-25T02:04:08.134Z,91.70
2017-09-25T02:06:39.058Z,91.90
2017-09-25T02:09:10.028Z,91.30
2017-09-25T02:11:41.331Z,90.80
2017-09-25T02:14:12.215Z,90.70
2017-09-25T02:16:43.412Z,90.50
2017-09-25T02:19:14.319Z,90.40
2017-09-25T02:21:46.003Z,90.00
2017-09-25T02:24:16.900Z,90.00
2017-09-25T02:26:47.819Z,90.00
2017-09-25T02:29:19.182Z,89.80
2017-09-25T02:31:50.109Z,89.50
2017-09-25T02:34:21.053Z,89.00
2017-09-25T02:36:51.966Z,88.50
2017-09-25T02:39:22.876Z,88.30
2017-09-25T02:41:54.633Z,87.50
2017-09-25T02:44:25.551Z,87.40
2017-09-25T02:46:57.552Z,87.90
2017-09-25T02:49:28.482Z,87.80
2017-09-25T02:51:59.771Z,87.20
2017-09-25T02:54:31.503Z,84.50
2017-09-25T02:57:03.333Z,84.40
2017-09-25T02:59:34.626Z,83.00
2017-09-25T03:02:06.298Z,83.90
2017-09-25T03:04:37.207Z,84.00
2017-09-25T03:07:08.139Z,83.40
2017-09-25T03:09:39.058Z,81.70
2017-09-25T03:12:11.269Z,81.50
2017-09-25T03:14:42.183Z,81.80
2017-09-25T03:17:13.307Z,81.60
2017-09-25T03:19:44.232Z,80.20
2017-09-25T03:22:15.907Z,78.80
2017-09-25T03:24:46.817Z,78.80
2017-09-25T03:27:18.539Z,77.70
2017-09-25T03:29:49.887Z,77.60
2017-09-25T03:32:20.831Z,77.20
2017-09-25T03:34:51.761Z,77.00
2017-09-25T03:37:22.702Z,77.70
2017-09-25T03:39:53.631Z,76.00
2017-09-25T03:42:24.975Z,75.60
2017-09-25T03:44:55.869Z,72.80
2017-09-25T03:47:27.769Z,67.20
2017-09-25T03:49:58.675Z,67.20
2017-09-25T03:52:30.383Z,66.70
2017-09-25T03:55:01.312Z,66.70
2017-09-25T03:57:32.234Z,68.60
2017-09-25T04:00:03.571Z,67.10
2017-09-25T04:02:34.508Z,66.00
2017-09-25T04:05:05.464Z,65.00
2017-09-25T04:07:36.382Z,62.30
2017-09-25T04:10:07.278Z,60.50
2017-09-25T04:12:39.404Z,59.30
2017-09-25T04:15:10.476Z,59.60
2017-09-25T04:17:41.401Z,59.70
2017-09-25T04:20:12.341Z,60.50
2017-09-25T04:22:43.257Z,60.10
2017-09-25T04:25:14.586Z,60.10
2017-09-25T04:27:45.491Z,60.10
2017-09-25T04:30:16.782Z,59.70
2017-09-25T04:32:49.067Z,59.90
2017-09-25T04:35:19.979Z,59.90
2017-09-25T04:37:50.898Z,60.00
2017-09-25T04:40:22.580Z,60.10
2017-09-25T04:42:53.820Z,60.00
2017-09-25T04:45:24.734Z,59.10
2017-09-25T04:47:56.441Z,58.80
2017-09-25T04:50:27.356Z,58.70
2017-09-25T04:52:59.170Z,57.80
2017-09-25T04:55:30.431Z,58.50
2017-09-25T04:58:02.169Z,57.90
2017-09-25T05:00:34.219Z,57.80
2017-09-25T05:03:05.122Z,57.80
2017-09-25T05:05:36.024Z,57.10
2017-09-25T05:08:07.713Z,57.60
2017-09-25T05:10:38.631Z,57.50
2017-09-25T05:13:10.663Z,57.70
2017-09-25T05:15:41.554Z,57.60
2017-09-25T05:18:12.495Z,58.40
2017-09-25T05:20:43.422Z,57.60
2017-09-25T05:23:14.318Z,57.80
2017-09-25T05:25:45.610Z,57.90
2017-09-25T05:28:16.533Z,57.90
2017-09-25T05:30:48.322Z,57.40
2017-09-25T05:33:19.262Z,57.40
2017-09-25T05:35:50.169Z,57.60
2017-09-25T05:38:21.856Z,56.60
2017-09-25T05:40:52.778Z,56.50
2017-09-25T05:43:24.154Z,55.90
2017-09-25T05:45:55.057Z,54.80
2017-09-25T05:48:25.951Z,55.10
2017-09-25T05:50:56.940Z,55.00
2017-09-25T05:53:27.850Z,53.90
2017-09-25T05:56:00.051Z,54.80
2017-09-25T05:58:31.018Z,54.80
2017-09-25T06:01:02.323Z,54.00
2017-09-25T06:03:34.849Z,53.70
2017-09-25T06:06:05.754Z,53.70
2017-09-25T06:08:36.676Z,53.30
2017-09-25T06:11:07.577Z,52.90
2017-09-25T06:13:39.551Z,52.90
2017-09-25T06:16:11.223Z,52.50
2017-09-25T06:18:42.912Z,52.70
2017-09-25T06:21:13.802Z,52.70
2017-09-25T06:23:45.487Z,52.00
2017-09-25T06:26:16.833Z,52.00
2017-09-25T06:28:47.755Z,52.50
2017-09-25T06:31:19.614Z,52.60
2017-09-25T06:33:51.292Z,52.80
2017-09-25T06:36:22.212Z,52.90
2017-09-25T06:38:53.888Z,53.20
2017-09-25T06:41:24.825Z,53.20
2017-09-25T06:43:56.066Z,53.80
2017-09-25T06:46:26.981Z,54.70
2017-09-25T06:48:58.700Z,56.30
2017-09-25T06:51:29.608Z,56.30
2017-09-25T06:54:01.302Z,56.50
2017-09-25T06:56:32.931Z,56.20
2017-09-25T06:59:03.912Z,56.30
2017-09-25T07:01:35.098Z,57.10
2017-09-25T07:04:06.059Z,59.60
2017-09-25T07:06:36.967Z,56.60
2017-09-25T07:11:42.462Z,57.30
2017-09-25T07:14:13.516Z,57.50
2017-09-25T07:16:44.440Z,57.60
2017-09-25T07:19:15.345Z,58.20
2017-09-25T07:21:47.827Z,58.80
2017-09-25T07:24:19.510Z,58.10
2017-09-25T07:26:50.913Z,58.40
2017-09-25T07:29:22.591Z,58.30
2017-09-25T07:31:53.466Z,58.30
2017-09-25T07:34:24.387Z,58.20
2017-09-25T07:36:55.331Z,58.80
2017-09-25T07:39:26.258Z,58.70
2017-09-25T07:41:57.166Z,59.30
2017-09-25T07:44:29.370Z,59.90
2017-09-25T07:47:00.283Z,59.90
2017-09-25T07:49:31.259Z,60.10
2017-09-25T07:52:02.383Z,59.30
2017-09-25T07:54:33.330Z,58.80
2017-09-25T07:57:04.538Z,61.50
2017-09-25T07:59:36.222Z,62.70
2017-09-25T08:02:07.142Z,62.70
2017-09-25T08:04:38.050Z,62.30
2017-09-25T08:07:09.722Z,62.30
2017-09-25T08:09:41.751Z,62.10
2017-09-25T08:12:12.656Z,62.10
2017-09-25T08:14:44.075Z,62.40
2017-09-25T08:17:15.741Z,62.60
2017-09-25T08:19:47.198Z,62.60
2017-09-25T08:22:18.107Z,62.80
2017-09-25T08:24:49.784Z,64.10
2017-09-25T08:27:20.725Z,64.00
2017-09-25T08:29:51.671Z,64.20
2017-09-25T08:32:22.587Z,65.20
2017-09-25T08:34:54.279Z,65.80
2017-09-25T08:37:25.496Z,65.80
2017-09-25T08:39:57.591Z,67.30
2017-09-25T08:42:28.519Z,67.20
2017-09-25T08:44:59.752Z,66.90
2017-09-25T08:47:30.686Z,67.00
2017-09-25T08:50:01.606Z,67.30
2017-09-25T08:52:33.288Z,67.70
2017-09-25T08:55:04.266Z,67.00
2017-09-25T08:57:35.454Z,67.00
2017-09-25T09:00:07.135Z,67.20
2017-09-25T09:02:38.067Z,67.10
2017-09-25T09:05:09.003Z,66.30
2017-09-25T09:07:39.912Z,65.60
2017-09-25T09:10:11.998Z,67.70
2017-09-25T09:12:42.953Z,67.70
2017-09-25T09:15:14.284Z,67.30
2017-09-25T09:17:45.189Z,67.50
2017-09-25T09:20:16.103Z,67.00
2017-09-25T09:22:47.011Z,66.70
2017-09-25T09:25:17.938Z,67.20
2017-09-25T09:27:49.280Z,67.20
2017-09-25T09:30:20.211Z,67.40
2017-09-25T09:32:51.954Z,68.00
2017-09-25T09:35:23.608Z,69.10
2017-09-25T09:37:54.544Z,69.10
2017-09-25T09:40:25.827Z,69.90
2017-09-25T09:42:56.747Z,70.50
2017-09-25T09:45:28.931Z,71.60
2017-09-25T09:47:59.853Z,70.90
2017-09-25T09:50:31.567Z,70.80
2017-09-25T09:53:03.103Z,70.80
2017-09-25T09:55:34.022Z,71.20
2017-09-25T09:58:05.283Z,71.50
2017-09-25T10:00:36.201Z,71.50
2017-09-25T10:03:07.131Z,72.10
2017-09-25T10:05:38.035Z,72.40
2017-09-25T10:08:09.042Z,72.70
2017-09-25T10:10:39.929Z,72.50
2017-09-25T10:13:11.630Z,72.80
2017-09-25T10:15:42.960Z,72.70
2017-09-25T10:18:13.888Z,73.00
2017-09-25T10:20:44.861Z,73.80
2017-09-25T10:23:15.778Z,74.50
2017-09-25T10:25:46.716Z,75.70
2017-09-25T10:28:17.949Z,76.90
2017-09-25T10:30:49.655Z,78.30
2017-09-25T10:33:20.527Z,78.30
2017-09-25T10:35:52.202Z,80.10
2017-09-25T10:38:23.127Z,80.10
2017-09-25T10:40:55.363Z,81.10
2017-09-25T10:43:26.289Z,81.10
2017-09-25T10:45:57.703Z,81.70
2017-09-25T10:48:28.631Z,81.60
2017-09-25T10:51:00.334Z,82.30
2017-09-25T10:53:31.295Z,82.20
2017-09-25T10:56:02.236Z,82.30
2017-09-25T10:58:33.537Z,82.30
2017-09-25T11:01:04.621Z,82.60
2017-09-25T11:03:36.426Z,82.70
2017-09-25T11:06:07.441Z,82.70
2017-09-25T11:08:38.462Z,82.60
2017-09-25T11:11:10.806Z,82.80
2017-09-25T11:13:41.811Z,82.80
2017-09-25T11:16:13.170Z,83.20
2017-09-25T11:18:44.152Z,83.70
2017-09-25T11:21:16.019Z,83.10
2017-09-25T11:23:47.783Z,82.80
2017-09-25T11:26:19.562Z,83.40
2017-09-25T11:28:50.913Z,83.30
2017-09-25T11:31:21.918Z,84.30
2017-09-25T11:33:52.922Z,84.60
2017-09-25T11:36:23.985Z,84.50
2017-09-25T11:38:54.984Z,84.50
2017-09-25T11:41:26.160Z,84.60
2017-09-25T11:43:57.173Z,84.80
2017-09-25T11:46:28.770Z,85.40
2017-09-25T11:48:59.858Z,85.70
2017-09-25T11:51:31.095Z,85.80
2017-09-25T11:54:02.123Z,85.80
2017-09-25T11:56:33.976Z,85.40
2017-09-25T11:59:06.244Z,85.60
2017-09-25T12:01:38.038Z,85.60
2017-09-25T12:04:09.048Z,85.60
2017-09-25T12:06:40.846Z,85.80
2017-09-25T12:09:11.921Z,85.80
2017-09-25T12:11:43.455Z,85.60
2017-09-25T12:14:14.434Z,85.90
2017-09-25T12:16:46.631Z,86.30
2017-09-25T12:19:17.649Z,86.30
2017-09-25T12:21:49.512Z,86.20
2017-09-25T12:24:20.869Z,86.10
2017-09-25T12:26:51.878Z,86.30
2017-09-25T12:29:23.357Z,86.10
2017-09-25T12:31:55.208Z,87.00
2017-09-25T12:34:27.020Z,87.40
2017-09-25T12:36:58.086Z,87.40
2017-09-25T12:39:29.156Z,87.60
2017-09-25T12:42:01.160Z,87.50
2017-09-25T12:44:32.185Z,86.40
2017-09-25T12:47:03.193Z,86.70
2017-09-25T12:49:34.984Z,87.80
2017-09-25T12:52:06.766Z,88.10
2017-09-25T12:54:38.151Z,88.10
2017-09-25T12:57:09.183Z,87.70
2017-09-25T12:59:40.542Z,87.70
2017-09-25T13:02:12.347Z,87.30
2017-09-25T13:04:43.420Z,87.20
2017-09-25T13:07:14.449Z,87.20
2017-09-25T13:09:45.485Z,87.50
2017-09-25T13:12:16.890Z,87.70
2017-09-25T13:14:48.640Z,88.50
2017-09-25T13:17:20.430Z,87.30
2017-09-25T13:19:51.454Z,87.30
2017-09-25T13:22:22.455Z,87.40
2017-09-25T13:24:53.836Z,87.60
2017-09-25T13:27:25.693Z,87.50
2017-09-25T13:29:57.026Z,87.50
2017-09-25T13:32:28.048Z,87.90
2017-09-25T13:34:59.082Z,87.70
2017-09-25T13:37:30.113Z,88.10
2017-09-25T13:40:01.125Z,88.70
2017-09-25T13:42:33.386Z,89.70
2017-09-25T13:45:04.403Z,89.60
2017-09-25T13:47:36.182Z,88.90
2017-09-25T13:50:07.251Z,88.80
2017-09-25T13:52:38.319Z,89.00
2017-09-25T13:55:09.799Z,88.80
2017-09-25T13:57:41.613Z,88.90
2017-09-25T14:02:47.654Z,89.00
2017-09-25T14:05:18.651Z,89.30
2017-09-25T14:07:49.677Z,89.60
2017-09-25T14:10:20.743Z,89.60
2017-09-25T14:12:53.512Z,90.00
2017-09-25T14:15:24.592Z,90.00
2017-09-25T14:17:55.661Z,89.70
2017-09-25T14:20:26.766Z,90.00
2017-09-25T14:22:57.833Z,90.10
2017-09-25T14:25:29.774Z,90.20
2017-09-25T14:28:01.554Z,90.40
2017-09-25T14:30:32.856Z,90.40
2017-09-25T14:33:04.863Z,90.60
2017-09-25T14:35:35.881Z,90.60
2017-09-25T14:38:07.777Z,90.60
2017-09-25T14:40:38.877Z,90.60
2017-09-25T14:43:10.907Z,90.80
2017-09-25T14:45:41.981Z,90.70
2017-09-25T14:48:13.808Z,90.70
2017-09-25T14:50:44.829Z,90.70
2017-09-25T14:53:15.818Z,90.70
2017-09-25T14:55:47.894Z,91.10
2017-09-25T14:58:19.769Z,91.10
2017-09-25T15:00:50.744Z,91.10
2017-09-25T15:03:22.844Z,91.20
2017-09-25T15:05:54.672Z,91.40
2017-09-25T15:08:26.105Z,91.40
2017-09-25T15:10:57.118Z,91.50
2017-09-25T15:13:28.370Z,91.60
2017-09-25T15:15:59.396Z,91.70
2017-09-25T15:18:31.182Z,91.90
2017-09-25T15:21:02.184Z,91.80
2017-09-25T15:23:34.128Z,92.00
2017-09-25T15:26:05.602Z,92.00
2017-09-25T15:28:37.484Z,92.20
2017-09-25T15:31:08.590Z,92.10
2017-09-25T15:33:40.397Z,92.30
2017-09-25T15:36:11.388Z,92.30
2017-09-25T15:38:42.637Z,92.30
2017-09-25T15:41:14.442Z,92.40
2017-09-25T15:43:45.665Z,92.40
2017-09-25T15:46:16.664Z,92.40
2017-09-25T15:48:47.667Z,92.60
2017-09-25T15:51:18.733Z,92.70
2017-09-25T15:53:49.763Z,92.80
2017-09-25T15:56:23.753Z,93.10
2017-09-25T15:58:54.777Z,92.90
2017-09-25T16:01:25.848Z,93.00
2017-09-25T16:03:56.882Z,93.00
2017-09-25T16:06:28.667Z,93.00
2017-09-25T16:09:00.060Z,93.00
2017-09-25T16:11:31.853Z,93.10
2017-09-25T16:14:03.422Z,93.00
2017-09-25T16:16:34.493Z,93.20
2017-09-25T16:19:06.289Z,93.30
2017-09-25T16:21:37.290Z,93.20
2017-09-25T16:24:08.427Z,93.20
2017-09-25T16:26:40.202Z,93.20
2017-09-25T16:29:11.983Z,93.30
2017-09-25T16:31:42.977Z,93.30
2017-09-25T16:34:13.990Z,93.40
2017-09-25T16:36:45.067Z,93.50
2017-09-25T16:39:16.294Z,93.60
2017-09-25T16:41:47.498Z,93.40
2017-09-25T16:44:19.773Z,93.60
2017-09-25T16:46:55.782Z,93.60
2017-09-25T16:49:27.069Z,93.60
2017-09-25T16:51:58.070Z,93.60
2017-09-25T16:54:29.086Z,93.70
2017-09-25T16:57:00.374Z,93.70
2017-09-25T16:59:32.432Z,93.80
2017-09-25T17:02:03.493Z,93.80
2017-09-25T17:04:35.287Z,93.90
2017-09-25T17:07:06.329Z,93.90
2017-09-25T17:09:39.325Z,94.10
2017-09-25T17:12:10.319Z,93.80
2017-09-25T17:14:42.156Z,93.90
2017-09-25T17:17:13.970Z,94.00
2017-09-25T17:19:44.951Z,94.00
2017-09-25T17:22:17.131Z,94.00
2017-09-25T17:24:49.230Z,93.90
2017-09-25T17:27:21.471Z,94.20
2017-09-25T17:29:53.261Z,94.00
2017-09-25T17:32:24.277Z,94.00
2017-09-25T17:34:56.061Z,94.10
2017-09-25T17:37:27.077Z,94.10
2017-09-25T17:39:59.416Z,94.20
2017-09-25T17:42:30.497Z,94.20
2017-09-25T17:45:01.523Z,94.10
2017-09-25T17:47:33.239Z,94.20
2017-09-25T17:50:04.162Z,94.20
2017-09-25T17:52:35.781Z,94.30
2017-09-25T17:55:07.465Z,94.30
2017-09-25T17:57:38.579Z,94.30
2017-09-25T18:00:10.284Z,94.30
2017-09-25T18:02:41.198Z,94.30
2017-09-25T18:05:12.116Z,94.30
2017-09-25T18:07:43.831Z,94.30
2017-09-25T18:10:15.292Z,94.30
2017-09-25T18:12:46.203Z,94.30
2017-09-25T18:15:17.154Z,94.30
2017-09-25T18:17:48.069Z,94.40
2017-09-25T18:20:18.966Z,94.40
2017-09-25T18:22:51.122Z,94.40
2017-09-25T18:25:22.042Z,94.40
2017-09-25T18:27:53.451Z,94.50
2017-09-25T18:30:25.079Z,94.50
2017-09-25T18:32:56.775Z,94.50
2017-09-25T18:35:27.711Z,94.50
2017-09-25T18:37:58.626Z,94.20
2017-09-25T18:40:30.798Z,93.80
2017-09-25T18:43:01.752Z,93.70
2017-09-25T18:45:32.687Z,93.70
2017-09-25T18:48:03.627Z,93.70
2017-09-25T18:50:34.528Z,93.70
2017-09-25T18:53:05.447Z,93.70
2017-09-25T18:55:36.404Z,93.90
2017-09-25T18:58:07.485Z,93.90
2017-09-25T19:00:38.422Z,94.00
2017-09-25T19:03:09.363Z,94.00
2017-09-25T19:05:40.257Z,94.30
2017-09-25T19:08:11.187Z,94.00
2017-09-25T19:10:42.618Z,94.10
2017-09-25T19:13:13.538Z,94.10
2017-09-25T19:15:44.459Z,94.10
2017-09-25T19:18:15.502Z,94.10
2017-09-25T19:20:46.443Z,94.10
2017-09-25T19:23:17.375Z,94.10
2017-09-25T19:25:48.302Z,94.20
2017-09-25T19:28:21.073Z,94.40
2017-09-25T19:30:52.755Z,94.40
2017-09-25T19:33:23.663Z,94.30
2017-09-25T19:35:55.353Z,94.40
2017-09-25T19:38:26.298Z,94.40
2017-09-25T19:40:57.775Z,94.40
2017-09-25T19:43:28.687Z,94.40
2017-09-25T19:45:59.900Z,94.40
2017-09-25T19:48:32.767Z,94.50
2017-09-25T19:51:06.863Z,94.50
2017-09-25T19:53:38.375Z,94.60
2017-09-25T19:56:23.728Z,94.60
2017-09-25T19:58:56.675Z,94.60
2017-09-25T20:01:27.896Z,94.60
2017-09-25T20:03:59.082Z,94.60
2017-09-25T20:06:30.572Z,94.60
2017-09-25T20:09:01.789Z,94.50
2017-09-25T20:11:34.550Z,94.50
2017-09-25T20:14:20.691Z,94.50
2017-09-25T20:16:56.670Z,94.80
2017-09-25T20:19:27.842Z,94.50
2017-09-25T20:21:58.791Z,94.50
2017-09-25T20:24:29.726Z,94.50
2017-09-25T20:27:00.646Z,94.50
2017-09-25T20:29:31.566Z,94.40
2017-09-25T20:32:03.409Z,94.70
2017-09-25T20:34:34.307Z,94.40
2017-09-25T20:37:06.270Z,94.40
2017-09-25T20:39:38.238Z,94.40
2017-09-25T20:42:27.367Z,94.40
2017-09-25T20:44:58.606Z,94.40
2017-09-25T20:47:29.674Z,94.50
2017-09-25T20:50:00.953Z,94.40
2017-09-25T20:52:31.891Z,94.30
2017-09-25T20:55:03.553Z,94.60
2017-09-25T20:57:34.604Z,94.60
2017-09-25T21:00:05.268Z,94.70
2017-09-25T21:02:37.907Z,94.70
2017-09-25T21:05:08.835Z,94.80
2017-09-25T21:07:40.546Z,95.00
2017-09-25T21:10:11.498Z,95.00
2017-09-25T21:12:42.430Z,95.00
2017-09-25T21:15:13.412Z,95.10
2017-09-25T21:17:44.331Z,95.20
2017-09-25T21:20:17.230Z,95.30
2017-09-25T21:22:49.204Z,95.30
2017-09-25T21:25:20.421Z,95.30
2017-09-25T21:27:52.982Z,95.40
2017-09-25T21:30:23.889Z,95.40
2017-09-25T21:32:55.755Z,95.40
2017-09-25T21:35:26.673Z,95.50
2017-09-25T21:37:57.664Z,95.60
2017-09-25T21:40:28.579Z,95.70
2017-09-25T21:42:59.501Z,95.70
2017-09-25T21:45:30.436Z,95.80
2017-09-25T21:48:01.350Z,95.80
2017-09-25T21:50:32.567Z,95.70
2017-09-25T21:53:03.511Z,95.70
2017-09-25T21:55:35.207Z,95.50
2017-09-25T21:58:06.954Z,95.50
2017-09-25T22:00:37.883Z,95.50
2017-09-25T22:03:11.841Z,95.40
2017-09-25T22:05:43.475Z,95.60
2017-09-25T22:08:14.448Z,94.80
2017-09-25T22:10:45.344Z,94.40
2017-09-25T22:13:17.052Z,93.50
2017-09-25T22:15:50.020Z,93.50
2017-09-25T22:18:20.918Z,93.40
2017-09-25T22:20:52.155Z,93.30
2017-09-25T22:23:23.227Z,93.20
2017-09-25T22:25:54.163Z,93.20
2017-09-25T22:28:25.080Z,93.30
2017-09-25T22:30:57.036Z,93.20
2017-09-25T22:33:29.571Z,93.30
2017-09-25T22:36:00.759Z,93.30
2017-09-25T22:38:31.966Z,93.30
2017-09-25T22:41:03.155Z,93.40
2017-09-25T22:43:36.874Z,93.70
2017-09-25T22:46:08.192Z,94.00
2017-09-25T22:48:39.151Z,94.30
2017-09-25T22:51:11.575Z,94.50
2017-09-25T22:53:42.478Z,94.50
2017-09-25T22:56:13.633Z,94.40
2017-09-25T22:58:44.591Z,94.30
2017-09-25T23:01:15.498Z,94.30
2017-09-25T23:03:47.764Z,94.40
2017-09-25T23:06:18.720Z,94.40
2017-09-25T23:08:50.020Z,94.40
2017-09-25T23:11:33.462Z,94.50
2017-09-25T23:14:04.654Z,94.50
2017-09-25T23:16:36.861Z,94.60
2017-09-25T23:19:07.987Z,94.70
2017-09-25T23:21:39.725Z,94.80
2017-09-25T23:24:10.855Z,94.80
2017-09-25T23:26:42.013Z,94.90
2017-09-25T23:29:15.214Z,95.20
2017-09-25T23:31:46.967Z,95.00
2017-09-25T23:34:19.687Z,95.10
2017-09-25T23:36:50.587Z,95.10
2017-09-25T23:39:22.279Z,95.10
2017-09-25T23:41:54.015Z,95.20
2017-09-25T23:44:25.068Z,95.20
2017-09-25T23:46:56.416Z,95.30
2017-09-25T23:49:27.431Z,95.30
2017-09-25T23:51:59.277Z,95.40
2017-09-25T23:54:30.275Z,95.40
2017-09-25T23:57:01.283Z,95.40
2017-09-25T23:59:32.727Z,95.30
